createdAt,value
2019-01-15T00:02:19.918Z,71.37
2019-01-15T00:04:49.436Z,70.81
2019-01-15T00:07:19.076Z,70.49
2019-01-15T00:09:48.959Z,70.65
2019-01-15T00:12:18.479Z,70.96
2019-01-15T00:14:48.364Z,70.66
2019-01-15T00:17:17.886Z,70.97
2019-01-15T00:19:47.760Z,70.99
2019-01-15T00:22:17.282Z,71.05
2019-01-15T00:24:46.693Z,70.94
2019-01-15T00:27:16.084Z,71.32
2019-01-15T00:29:45.966Z,71.34
2019-01-15T00:32:43.085Z,71.50
2019-01-15T00:35:12.487Z,71.94
2019-01-15T00:37:41.891Z,72.42
2019-01-15T00:40:16.569Z,72.10
2019-01-15T00:42:46.099Z,72.55
2019-01-15T00:45:15.858Z,72.76
2019-01-15T00:47:45.372Z,72.67
2019-01-15T00:50:15.497Z,72.85
2019-01-15T00:52:45.255Z,73.06
2019-01-15T00:55:15.381Z,73.55
2019-01-15T00:57:52.457Z,73.85
2019-01-15T01:00:22.942Z,74.39
2019-01-15T01:02:52.700Z,74.76
2019-01-15T01:05:22.100Z,74.82
2019-01-15T01:07:51.382Z,75.43
2019-01-15T01:10:22.140Z,76.13
2019-01-15T01:12:52.964Z,76.50
2019-01-15T01:15:23.685Z,76.57
2019-01-15T01:17:54.405Z,77.25
2019-01-15T01:20:25.367Z,77.80
2019-01-15T01:22:55.971Z,77.76
2019-01-15T01:25:26.452Z,78.18
2019-01-15T01:27:57.289Z,78.53
2019-01-15T01:30:27.903Z,78.80
2019-01-15T01:32:58.250Z,78.85
2019-01-15T01:35:28.728Z,78.80
2019-01-15T01:37:59.088Z,79.27
2019-01-15T01:40:29.570Z,79.20
2019-01-15T01:42:59.928Z,79.22
2019-01-15T01:45:30.288Z,79.09
2019-01-15T01:48:00.650Z,79.16
2019-01-15T01:50:31.009Z,79.15
2019-01-15T01:53:01.369Z,79.38
2019-01-15T01:55:31.489Z,79.00
2019-01-15T01:58:00.559Z,79.23
2019-01-15T02:00:30.088Z,79.16
2019-01-15T02:02:59.622Z,78.89
2019-01-15T02:05:28.904Z,79.30
2019-01-15T02:07:58.364Z,79.17
2019-01-15T02:10:39.794Z,79.37
2019-01-15T02:13:21.240Z,79.26
2019-01-15T02:15:51.232Z,79.39
2019-01-15T02:18:56.993Z,79.38
2019-01-15T02:21:27.115Z,79.47
2019-01-15T02:23:56.756Z,79.68
2019-01-15T02:26:26.758Z,79.65
2019-01-15T02:28:56.397Z,79.72
2019-01-15T02:31:25.989Z,79.52
2019-01-15T02:33:55.750Z,79.68
2019-01-15T02:36:26.481Z,79.64
2019-01-15T02:38:57.645Z,80.41
2019-01-15T02:41:27.078Z,80.14
2019-01-15T02:43:56.901Z,80.02
2019-01-15T02:46:26.305Z,80.13
2019-01-15T02:48:55.944Z,80.48
2019-01-15T02:51:26.681Z,80.50
2019-01-15T02:53:58.872Z,80.37
2019-01-15T02:56:29.200Z,80.47
2019-01-15T02:58:59.562Z,80.29
2019-01-15T03:01:29.804Z,80.59
2019-01-15T03:04:00.296Z,80.42
2019-01-15T03:06:30.648Z,80.33
2019-01-15T03:09:01.003Z,80.05
2019-01-15T03:11:31.241Z,79.95
2019-01-15T03:14:01.244Z,79.83
2019-01-15T03:16:31.363Z,79.73
2019-01-15T03:19:01.720Z,79.97
2019-01-15T03:21:31.721Z,79.80
2019-01-15T03:24:01.725Z,79.59
2019-01-15T03:26:32.085Z,79.44
2019-01-15T03:29:02.206Z,79.55
2019-01-15T03:31:32.090Z,79.36
2019-01-15T03:34:01.728Z,79.34
2019-01-15T03:36:31.609Z,79.36
2019-01-15T03:39:01.488Z,79.41
2019-01-15T03:41:31.246Z,79.61
2019-01-15T03:44:01.007Z,79.46
2019-01-15T03:46:31.008Z,79.61
2019-01-15T03:49:06.769Z,79.22
2019-01-15T03:51:37.011Z,79.37
2019-01-15T03:54:06.653Z,79.43
2019-01-15T03:56:36.538Z,79.60
2019-01-15T03:59:06.303Z,79.25
2019-01-15T04:01:35.935Z,79.11
2019-01-15T04:04:05.587Z,79.21
2019-01-15T04:06:35.577Z,79.19
2019-01-15T04:09:07.509Z,79.33
2019-01-15T04:11:37.509Z,79.33
2019-01-15T04:14:07.627Z,79.47
2019-01-15T04:16:37.383Z,79.52
2019-01-15T04:19:07.399Z,79.57
2019-01-15T04:21:36.215Z,79.89
2019-01-15T04:24:05.391Z,79.72
2019-01-15T04:26:34.751Z,79.58
2019-01-15T04:29:04.392Z,79.47
2019-01-15T04:31:33.671Z,79.82
2019-01-15T04:34:03.078Z,79.59
2019-01-15T04:36:32.352Z,79.59
2019-01-15T04:39:01.994Z,79.57
2019-01-15T04:41:31.516Z,79.45
2019-01-15T04:44:01.040Z,79.65
2019-01-15T04:46:30.437Z,79.54
2019-01-15T04:48:59.726Z,79.47
2019-01-15T04:51:29.239Z,79.49
2019-01-15T04:53:59.858Z,79.51
2019-01-15T04:56:29.603Z,79.91
2019-01-15T04:58:59.375Z,80.09
2019-01-15T05:01:28.647Z,80.39
2019-01-15T05:03:58.286Z,80.38
2019-01-15T05:06:27.929Z,80.23
2019-01-15T05:08:58.049Z,80.56
2019-01-15T05:11:29.856Z,81.11
2019-01-15T05:14:00.094Z,81.33
2019-01-15T05:16:30.105Z,81.45
2019-01-15T05:19:00.213Z,80.92
2019-01-15T05:21:30.102Z,80.80
2019-01-15T05:24:00.095Z,80.74
2019-01-15T05:26:30.336Z,80.54
2019-01-15T05:29:00.824Z,80.68
2019-01-15T05:31:30.698Z,81.20
2019-01-15T05:34:00.939Z,81.45
2019-01-15T05:36:31.335Z,81.81
2019-01-15T05:39:01.452Z,81.71
2019-01-15T05:41:31.452Z,81.57
2019-01-15T05:44:01.453Z,81.83
2019-01-15T05:46:31.699Z,81.85
2019-01-15T05:49:01.938Z,82.35
2019-01-15T05:51:40.586Z,82.74
2019-01-15T05:54:14.401Z,82.60
2019-01-15T05:56:46.292Z,82.54
2019-01-15T05:59:17.056Z,83.17
2019-01-15T06:01:47.895Z,83.26
2019-01-15T06:04:18.612Z,83.46
2019-01-15T06:06:49.696Z,83.66
2019-01-15T06:09:20.534Z,83.73
2019-01-15T06:11:51.495Z,84.12
2019-01-15T06:14:22.694Z,84.41
2019-01-15T06:16:53.536Z,84.69
2019-01-15T06:19:24.136Z,84.73
2019-01-15T06:21:54.499Z,84.68
2019-01-15T06:24:24.982Z,84.70
2019-01-15T06:26:55.335Z,85.27
2019-01-15T06:29:25.820Z,85.22
2019-01-15T06:31:56.722Z,85.59
2019-01-15T06:34:27.278Z,85.79
2019-01-15T06:36:58.216Z,85.68
2019-01-15T06:39:30.018Z,86.20
2019-01-15T06:42:00.621Z,86.25
2019-01-15T06:45:25.852Z,86.61
2019-01-15T06:47:54.757Z,88.03
2019-01-15T06:50:27.597Z,88.40
2019-01-15T06:52:56.503Z,88.66
2019-01-15T06:55:25.425Z,89.05
2019-01-15T06:57:54.318Z,88.99
2019-01-15T07:00:25.164Z,89.30
2019-01-15T07:02:53.991Z,88.84
2019-01-15T07:05:22.942Z,89.40
2019-01-15T07:07:52.003Z,89.69
2019-01-15T07:10:26.593Z,89.62
2019-01-15T07:12:55.576Z,89.65
2019-01-15T07:15:24.415Z,89.74
2019-01-15T07:17:53.545Z,89.92
2019-01-15T07:20:22.500Z,89.84
2019-01-15T07:22:51.599Z,90.07
2019-01-15T07:25:20.999Z,89.95
2019-01-15T07:27:49.930Z,90.28
2019-01-15T07:30:21.531Z,90.01
2019-01-15T07:32:50.494Z,89.98
2019-01-15T07:35:19.542Z,90.33
2019-01-15T07:37:48.462Z,90.61
2019-01-15T07:40:17.371Z,90.42
2019-01-15T07:42:46.440Z,90.33
2019-01-15T07:45:16.170Z,90.63
2019-01-15T07:47:45.518Z,90.39
2019-01-15T07:50:16.334Z,90.30
2019-01-15T07:52:45.369Z,90.20
2019-01-15T07:55:15.692Z,90.35
2019-01-15T07:57:44.659Z,90.65
2019-01-15T08:00:16.588Z,90.49
2019-01-15T08:02:45.762Z,90.85
2019-01-15T08:05:15.609Z,91.49
2019-01-15T08:07:44.599Z,91.72
2019-01-15T08:10:14.772Z,91.54
2019-01-15T08:12:43.879Z,91.69
2019-01-15T08:15:18.753Z,91.98
2019-01-15T08:17:47.666Z,91.87
2019-01-15T08:20:16.537Z,92.06
2019-01-15T08:22:45.480Z,91.96
2019-01-15T08:25:14.584Z,92.04
2019-01-15T08:27:43.737Z,91.95
2019-01-15T08:30:15.922Z,92.08
2019-01-15T08:32:44.706Z,92.00
2019-01-15T08:35:14.198Z,92.00
2019-01-15T08:37:43.082Z,92.11
2019-01-15T08:40:12.794Z,92.20
2019-01-15T08:42:42.190Z,92.24
2019-01-15T08:45:11.400Z,92.21
2019-01-15T08:47:51.684Z,92.36
2019-01-15T08:50:23.086Z,92.34
2019-01-15T08:52:51.987Z,92.08
2019-01-15T08:55:21.043Z,91.99
2019-01-15T08:57:50.224Z,91.90
2019-01-15T09:00:20.065Z,91.69
2019-01-15T09:09:45.801Z,91.77
2019-01-15T09:12:14.725Z,91.34
2019-01-15T09:14:43.609Z,91.68
2019-01-15T09:17:12.526Z,91.83
2019-01-15T09:19:41.315Z,92.57
2019-01-15T09:22:10.219Z,92.80
2019-01-15T09:24:39.821Z,92.75
2019-01-15T09:27:08.680Z,93.38
2019-01-15T09:29:37.530Z,93.87
2019-01-15T09:32:06.432Z,93.57
2019-01-15T09:34:37.503Z,93.94
2019-01-15T09:37:08.004Z,94.05
2019-01-15T09:39:36.832Z,94.07
2019-01-15T09:42:06.178Z,93.98
2019-01-15T09:44:35.159Z,94.35
2019-01-15T09:47:04.240Z,94.10
2019-01-15T09:49:33.228Z,94.12
2019-01-15T09:52:02.525Z,93.92
2019-01-15T09:54:31.530Z,94.11
2019-01-15T09:57:03.100Z,94.06
2019-01-15T09:59:32.200Z,94.02
2019-01-15T10:02:01.159Z,94.09
2019-01-15T10:04:30.492Z,93.94
2019-01-15T10:06:59.392Z,94.16
2019-01-15T10:09:28.268Z,94.10
2019-01-15T10:11:57.448Z,94.16
2019-01-15T10:14:26.713Z,94.05
2019-01-15T10:16:55.843Z,94.29
2019-01-15T10:19:24.899Z,94.39
2019-01-15T10:21:54.260Z,94.35
2019-01-15T10:24:23.466Z,94.80
2019-01-15T10:26:52.830Z,94.58
2019-01-15T10:29:23.250Z,94.74
2019-01-15T10:32:41.165Z,94.88
2019-01-15T10:35:15.274Z,95.07
2019-01-15T10:37:44.072Z,95.44
2019-01-15T10:40:12.987Z,95.42
2019-01-15T10:42:41.785Z,95.44
2019-01-15T10:45:10.922Z,95.49
2019-01-15T10:47:39.865Z,95.51
2019-01-15T10:50:09.382Z,95.80
2019-01-15T10:52:40.584Z,95.86
2019-01-15T10:55:09.580Z,95.72
2019-01-15T10:57:38.596Z,95.89
2019-01-15T11:00:09.177Z,95.87
2019-01-15T11:02:38.057Z,96.00
2019-01-15T11:05:08.189Z,95.77
2019-01-15T11:07:37.022Z,95.74
2019-01-15T11:10:07.277Z,95.63
2019-01-15T11:12:36.060Z,95.61
2019-01-15T11:15:06.499Z,95.66
2019-01-15T11:17:35.654Z,95.52
2019-01-15T11:20:06.386Z,95.60
2019-01-15T11:22:35.376Z,95.80
2019-01-15T11:25:05.836Z,95.65
2019-01-15T11:27:35.019Z,95.67
2019-01-15T11:30:05.335Z,95.79
2019-01-15T11:32:34.173Z,95.73
2019-01-15T11:35:02.996Z,95.76
2019-01-15T11:37:32.346Z,95.82
2019-01-15T11:40:02.183Z,95.78
2019-01-15T11:42:31.406Z,95.89
2019-01-15T11:45:03.564Z,95.86
2019-01-15T11:47:31.099Z,95.88
2019-01-15T11:50:00.296Z,95.97
2019-01-15T11:52:29.121Z,95.85
2019-01-15T11:54:58.467Z,95.80
2019-01-15T11:57:27.293Z,95.71
2019-01-15T11:59:56.121Z,95.72
2019-01-15T12:02:43.823Z,95.74
2019-01-15T12:05:22.498Z,95.67
2019-01-15T12:08:23.006Z,95.70
2019-01-15T12:11:09.986Z,95.74
2019-01-15T12:13:52.878Z,96.01
2019-01-15T12:16:59.450Z,96.06
2019-01-15T12:19:43.829Z,95.98
2019-01-15T12:22:27.727Z,95.78
2019-01-15T12:25:14.277Z,95.77
2019-01-15T12:27:56.382Z,95.83
2019-01-15T12:30:46.131Z,95.91
2019-01-15T12:33:32.741Z,95.79
2019-01-15T12:36:20.301Z,95.76
2019-01-15T12:39:07.141Z,95.79
2019-01-15T12:41:53.955Z,95.92
2019-01-15T12:44:43.525Z,95.85
2019-01-15T12:47:30.798Z,95.93
2019-01-15T12:50:17.373Z,95.84
2019-01-15T12:53:04.155Z,96.08
2019-01-15T12:55:55.145Z,96.21
2019-01-15T12:59:18.252Z,96.32
2019-01-15T13:02:00.134Z,96.51
2019-01-15T13:04:51.478Z,96.70
2019-01-15T13:07:33.309Z,96.81
2019-01-15T13:10:30.377Z,96.82
2019-01-15T13:13:21.601Z,96.86
2019-01-15T13:16:09.269Z,96.81
2019-01-15T13:18:57.824Z,96.88
2019-01-15T13:21:49.462Z,96.87
2019-01-15T13:24:31.758Z,96.95
2019-01-15T13:27:18.912Z,96.94
2019-01-15T13:30:03.928Z,97.07
2019-01-15T13:32:43.911Z,97.08
2019-01-15T13:35:41.084Z,97.12
2019-01-15T13:38:27.475Z,97.05
2019-01-15T13:41:12.126Z,97.12
2019-01-15T13:44:09.296Z,97.17
2019-01-15T13:47:09.083Z,97.19
2019-01-15T13:49:55.574Z,97.21
2019-01-15T13:52:55.613Z,97.16
2019-01-15T13:55:46.598Z,97.24
2019-01-15T13:58:29.572Z,97.24
2019-01-15T14:01:29.736Z,97.25
2019-01-15T14:04:17.053Z,97.17
2019-01-15T14:07:05.629Z,97.21
2019-01-15T14:09:53.057Z,97.05
2019-01-15T14:12:39.131Z,97.08
2019-01-15T14:15:31.034Z,97.02
2019-01-15T14:18:22.224Z,96.98
2019-01-15T14:21:15.131Z,97.00
2019-01-15T14:24:00.366Z,97.06
2019-01-15T14:26:40.436Z,96.74
2019-01-15T14:29:32.166Z,96.93
2019-01-15T14:32:19.331Z,97.14
2019-01-15T14:35:06.839Z,97.10
2019-01-15T14:37:54.370Z,97.15
2019-01-15T14:40:41.403Z,97.12
2019-01-15T14:43:29.051Z,97.28
2019-01-15T14:46:16.685Z,97.36
2019-01-15T14:49:17.288Z,97.22
2019-01-15T14:52:18.128Z,97.28
2019-01-15T14:55:05.410Z,97.31
2019-01-15T14:57:53.772Z,97.25
2019-01-15T15:01:14.053Z,97.29
2019-01-15T15:04:01.332Z,97.32
2019-01-15T15:06:48.737Z,97.18
2019-01-15T15:09:46.336Z,97.09
2019-01-15T15:12:37.936Z,97.23
2019-01-15T15:15:29.306Z,97.33
2019-01-15T15:18:07.705Z,97.42
2019-01-15T15:20:54.980Z,97.52
2019-01-15T15:23:47.183Z,97.46
2019-01-15T15:26:53.782Z,97.49
2019-01-15T15:29:48.025Z,97.49
2019-01-15T15:32:45.865Z,97.35
2019-01-15T15:35:34.946Z,97.54
2019-01-15T15:38:29.668Z,97.56
2019-01-15T15:41:22.230Z,97.57
2019-01-15T15:44:06.029Z,97.53
2019-01-15T15:46:43.711Z,97.56
2019-01-15T15:49:25.522Z,97.65
2019-01-15T15:52:09.993Z,97.59
2019-01-15T15:55:10.876Z,97.68
2019-01-15T15:58:01.235Z,97.70
2019-01-15T16:01:01.598Z,97.58
2019-01-15T16:03:49.144Z,97.48
2019-01-15T16:06:27.521Z,97.63
2019-01-15T16:09:14.920Z,97.67
2019-01-15T16:12:00.880Z,97.69
2019-01-15T16:14:45.214Z,97.66
2019-01-15T16:20:34.845Z,97.77
2019-01-15T16:23:26.020Z,97.77
2019-01-15T16:28:53.091Z,97.91
2019-01-15T16:31:45.290Z,98.02
2019-01-15T16:34:43.970Z,97.90
2019-01-15T16:37:22.851Z,98.04
2019-01-15T16:40:09.893Z,98.15
2019-01-15T16:42:57.532Z,98.06
2019-01-15T16:46:02.334Z,98.01
2019-01-15T16:55:11.579Z,98.07
2019-01-15T16:58:11.699Z,98.14
2019-01-15T17:01:19.144Z,98.09
2019-01-15T17:04:13.742Z,98.17
2019-01-15T17:07:05.346Z,98.15
2019-01-15T17:09:52.867Z,98.15
2019-01-15T17:12:54.069Z,98.15
2019-01-15T17:15:50.348Z,98.20
2019-01-15T17:18:26.591Z,98.18
2019-01-15T17:21:15.309Z,98.16
2019-01-15T17:24:13.034Z,98.20
2019-01-15T17:27:11.237Z,98.15
2019-01-15T17:29:51.835Z,98.15
2019-01-15T17:32:30.193Z,98.17
2019-01-15T17:35:19.158Z,98.16
2019-01-15T17:38:08.117Z,98.22
2019-01-15T17:40:50.718Z,98.12
2019-01-15T17:43:51.800Z,98.06
2019-01-15T17:46:28.880Z,98.10
2019-01-15T17:49:11.123Z,98.03
2019-01-15T17:51:59.176Z,98.12
2019-01-15T17:54:47.278Z,98.20
2019-01-15T17:57:42.241Z,98.19
2019-01-15T18:00:34.918Z,98.25
2019-01-15T18:03:28.077Z,98.25
2019-01-15T18:06:16.555Z,98.21
2019-01-15T18:09:12.116Z,98.21
2019-01-15T18:12:07.450Z,98.22
2019-01-15T18:15:12.237Z,98.19
2019-01-15T18:18:04.561Z,98.17
2019-01-15T18:20:54.120Z,98.18
2019-01-15T18:23:48.358Z,98.18
2019-01-15T18:26:36.623Z,98.23
2019-01-15T18:30:00.615Z,98.19
2019-01-15T18:33:05.523Z,98.11
2019-01-15T18:36:22.922Z,98.17
2019-01-15T18:39:11.045Z,98.15
2019-01-15T18:41:58.925Z,98.00
2019-01-15T18:45:06.488Z,97.97
2019-01-15T18:48:01.679Z,98.08
2019-01-15T18:50:56.642Z,98.24
2019-01-15T18:53:44.782Z,98.38
2019-01-15T18:56:36.961Z,98.30
2019-01-15T18:59:20.641Z,98.29
2019-01-15T19:02:17.089Z,98.31
2019-01-15T19:05:06.144Z,98.30
2019-01-15T19:08:15.002Z,98.29
2019-01-15T19:11:05.174Z,98.23
2019-01-15T19:13:52.195Z,98.17
2019-01-15T19:16:40.930Z,98.13
2019-01-15T19:19:28.200Z,98.02
2019-01-15T19:22:13.337Z,98.05
2019-01-15T19:25:20.763Z,98.07
2019-01-15T19:28:15.998Z,98.04
2019-01-15T19:31:08.655Z,98.03
2019-01-15T19:33:57.614Z,98.07
2019-01-15T19:36:45.382Z,98.04
2019-01-15T19:39:39.974Z,98.11
2019-01-15T19:42:31.929Z,98.13
2019-01-15T19:45:39.251Z,98.08
2019-01-15T19:48:36.020Z,98.13
2019-01-15T19:51:32.066Z,98.03
2019-01-15T19:54:32.655Z,97.94
2019-01-15T19:57:24.272Z,97.92
2019-01-15T20:00:11.781Z,97.92
2019-01-15T20:03:06.747Z,97.91
2019-01-15T20:05:54.980Z,97.84
2019-01-15T20:08:49.096Z,97.84
2019-01-15T20:11:30.980Z,97.81
2019-01-15T20:14:22.219Z,97.80
2019-01-15T20:17:28.701Z,97.72
2019-01-15T20:20:26.062Z,97.68
2019-01-15T20:23:59.424Z,97.70
2019-01-15T20:26:54.387Z,97.64
2019-01-15T20:29:42.745Z,97.60
2019-01-15T20:32:30.990Z,97.75
2019-01-15T20:35:22.474Z,97.81
2019-01-15T20:38:18.533Z,97.79
2019-01-15T20:41:08.550Z,97.73
2019-01-15T20:43:55.472Z,97.69
2019-01-15T20:46:46.834Z,97.75
2019-01-15T20:49:36.275Z,97.74
2019-01-15T20:52:30.764Z,97.70
2019-01-15T20:55:22.596Z,97.71
2019-01-15T20:58:17.200Z,97.80
2019-01-15T21:01:03.882Z,97.88
2019-01-15T21:03:58.477Z,97.75
2019-01-15T21:06:45.639Z,97.78
2019-01-15T21:09:34.121Z,97.80
2019-01-15T21:12:32.320Z,97.87
2019-01-15T21:15:16.723Z,97.89
2019-01-15T21:18:14.205Z,97.95
2019-01-15T21:21:01.587Z,97.94
2019-01-15T21:23:56.448Z,97.97
2019-01-15T21:26:43.728Z,97.98
2019-01-15T21:29:38.331Z,98.02
2019-01-15T21:32:25.731Z,98.22
2019-01-15T21:35:20.452Z,98.09
2019-01-15T21:38:11.574Z,98.04
2019-01-15T21:47:14.336Z,98.15
2019-01-15T21:50:02.098Z,98.02
2019-01-15T21:52:47.667Z,98.04
2019-01-15T21:55:25.739Z,98.05
2019-01-15T21:58:18.420Z,97.89
2019-01-15T22:01:27.652Z,97.61
2019-01-15T22:04:14.561Z,97.42
2019-01-15T22:07:02.567Z,97.25
2019-01-15T22:10:00.780Z,96.92
2019-01-15T22:13:01.088Z,96.83
2019-01-15T22:15:50.186Z,96.88
2019-01-15T22:18:36.606Z,96.91
2019-01-15T22:21:24.073Z,96.89
2019-01-15T22:24:10.623Z,96.80
2019-01-15T22:26:52.990Z,96.80
2019-01-15T22:29:37.411Z,96.59
2019-01-15T22:32:31.823Z,96.61
2019-01-15T22:35:12.285Z,96.36
2019-01-15T22:38:06.309Z,96.50
2019-01-15T22:40:40.965Z,96.33
2019-01-15T22:43:19.653Z,96.16
2019-01-15T22:46:06.346Z,96.00
2019-01-15T22:49:02.691Z,96.11
2019-01-15T22:54:58.800Z,96.07
2019-01-15T22:58:00.086Z,95.83
2019-01-15T23:01:02.027Z,95.64
2019-01-15T23:03:50.114Z,95.69
2019-01-15T23:06:36.771Z,95.40
2019-01-15T23:09:27.195Z,95.45
2019-01-15T23:12:14.397Z,95.26
2019-01-15T23:15:12.607Z,95.67
2019-01-15T23:17:51.840Z,95.33
2019-01-15T23:20:40.107Z,95.31
2019-01-15T23:23:27.985Z,95.32
2019-01-15T23:26:14.550Z,95.13
2019-01-15T23:28:56.156Z,95.15
2019-01-15T23:32:00.103Z,95.13
2019-01-15T23:34:50.041Z,95.07
2019-01-15T23:37:36.824Z,95.23
2019-01-15T23:40:29.146Z,95.12
2019-01-15T23:43:20.148Z,95.00
2019-01-15T23:46:27.003Z,94.85
2019-01-15T23:49:15.486Z,94.70
2019-01-15T23:52:09.831Z,94.60
2019-01-15T23:55:07.202Z,94.33
2019-01-15T23:58:02.154Z,94.28
